createdAt,value
2023-12-04T00:01:48.189Z,97057.50
2023-12-04T00:04:14.991Z,97054.25
2023-12-04T00:06:44.661Z,97047.22
2023-12-04T00:09:11.233Z,97052.34
2023-12-04T00:11:37.653Z,97044.66
2023-12-04T00:14:04.216Z,97034.41
2023-12-04T00:16:30.675Z,97024.25
2023-12-04T00:18:57.422Z,97023.72
2023-12-04T00:21:23.961Z,97028.03
2023-12-04T00:23:50.554Z,97018.34
2023-12-04T00:26:17.131Z,97012.78
2023-12-04T00:28:43.616Z,97013.47
2023-12-04T00:31:11.777Z,97006.69
2023-12-04T00:33:38.387Z,97001.56
2023-12-04T00:36:05.316Z,96994.69
2023-12-04T00:38:31.780Z,96992.53
2023-12-04T00:40:58.886Z,96984.53
2023-12-04T00:43:25.718Z,96983.31
2023-12-04T00:45:52.251Z,96973.47
2023-12-04T00:48:18.894Z,96970.09
2023-12-04T00:50:45.394Z,96974.41
2023-12-04T00:53:12.202Z,96971.84
2023-12-04T00:55:38.628Z,96967.13
2023-12-04T00:58:05.162Z,96968.75
2023-12-04T01:00:31.776Z,96955.91
2023-12-04T01:02:58.678Z,96955.91
2023-12-04T01:05:25.130Z,96957.53
2023-12-04T01:07:52.430Z,96952.00
2023-12-04T01:10:18.998Z,96958.38
2023-12-04T01:12:45.660Z,96958.75
2023-12-04T01:15:12.139Z,96966.19
2023-12-04T01:17:38.711Z,96961.31
2023-12-04T01:20:05.974Z,96955.66
2023-12-04T01:22:32.691Z,96955.38
2023-12-04T01:24:59.179Z,96959.72
2023-12-04T01:27:25.646Z,96956.34
2023-12-04T01:29:54.539Z,96945.13
2023-12-04T01:32:20.970Z,96952.03
2023-12-04T01:34:47.503Z,96942.69
2023-12-04T01:37:14.042Z,96946.47
2023-12-04T01:39:40.694Z,96947.13
2023-12-04T01:42:07.276Z,96944.31
2023-12-04T01:44:33.778Z,96938.66
2023-12-04T01:47:00.408Z,96939.28
2023-12-04T01:49:27.579Z,96943.78
2023-12-04T01:51:54.445Z,96957.25
2023-12-04T01:54:21.578Z,96957.56
2023-12-04T01:56:48.148Z,96953.22
2023-12-04T01:59:15.266Z,96947.81
2023-12-04T02:01:41.742Z,96938.34
2023-12-04T02:04:08.802Z,96943.22
2023-12-04T02:06:35.826Z,96931.63
2023-12-04T02:09:02.651Z,96930.00
2023-12-04T02:11:29.238Z,96922.72
2023-12-04T02:13:56.747Z,96924.31
2023-12-04T02:16:26.598Z,96917.03
2023-12-04T02:18:54.365Z,96917.28
2023-12-04T02:21:20.897Z,96922.72
2023-12-04T02:23:52.126Z,96928.63
2023-12-04T02:26:23.367Z,96929.72
2023-12-04T02:28:56.261Z,96925.22
2023-12-04T02:31:24.948Z,96918.06
2023-12-04T02:33:53.880Z,96914.81
2023-12-04T02:36:21.640Z,96913.47
2023-12-04T02:38:48.392Z,96909.69
2023-12-04T02:41:15.093Z,96902.16
2023-12-04T02:43:41.541Z,96901.34
2023-12-04T02:46:08.198Z,96886.63
2023-12-04T02:48:34.780Z,96889.72
2023-12-04T02:51:01.421Z,96874.63
2023-12-04T02:53:27.867Z,96877.06
2023-12-04T02:55:54.583Z,96873.41
2023-12-04T02:58:21.038Z,96865.72
2023-12-04T03:00:47.606Z,96867.34
2023-12-04T03:03:14.253Z,96856.56
2023-12-04T03:05:40.724Z,96855.31
2023-12-04T03:08:07.326Z,96844.66
2023-12-04T03:10:33.840Z,96842.50
2023-12-04T03:13:00.866Z,96846.03
2023-12-04T03:15:29.661Z,96841.16
2023-12-04T03:17:56.381Z,96837.38
2023-12-04T03:20:22.898Z,96824.97
2023-12-04T03:22:49.360Z,96827.41
2023-12-04T03:25:15.842Z,96819.59
2023-12-04T03:27:42.404Z,96805.94
2023-12-04T03:30:09.387Z,96801.06
2023-12-04T03:32:35.903Z,96800.94
2023-12-04T03:35:02.501Z,96796.06
2023-12-04T03:37:28.981Z,96803.13
2023-12-04T03:39:55.492Z,96795.03
2023-12-04T03:42:21.897Z,96792.88
2023-12-04T03:44:48.365Z,96801.78
2023-12-04T03:47:14.847Z,96807.97
2023-12-04T03:49:41.348Z,96798.78
2023-12-04T03:52:07.878Z,96801.06
2023-12-04T03:54:34.346Z,96794.31
2023-12-04T03:57:00.815Z,96794.69
2023-12-04T03:59:27.280Z,96789.00
2023-12-04T04:01:54.015Z,96786.78
2023-12-04T04:04:20.575Z,96782.72
2023-12-04T04:06:47.224Z,96784.09
2023-12-04T04:09:13.829Z,96791.63
2023-12-04T04:11:41.148Z,96793.53
2023-12-04T04:14:07.593Z,96792.16
2023-12-04T04:16:34.021Z,96787.50
2023-12-04T04:19:00.580Z,96778.09
2023-12-04T04:21:27.062Z,96793.88
2023-12-04T04:23:54.661Z,96792.38
2023-12-04T04:26:21.121Z,96790.09
2023-12-04T04:28:47.987Z,96798.19
2023-12-04T04:31:14.538Z,96793.06
2023-12-04T04:33:41.033Z,96801.97
2023-12-04T04:36:10.536Z,96803.25
2023-12-04T04:38:36.958Z,96790.00
2023-12-04T04:41:03.569Z,96793.56
2023-12-04T04:43:32.642Z,96792.34
2023-12-04T04:46:03.397Z,96795.38
2023-12-04T04:48:29.827Z,96788.63
2023-12-04T04:50:56.346Z,96773.91
2023-12-04T04:53:22.809Z,96767.31
2023-12-04T04:55:49.781Z,96760.97
2023-12-04T04:58:17.898Z,96760.97
2023-12-04T05:00:48.482Z,96755.72
2023-12-04T05:03:15.103Z,96753.56
2023-12-04T05:05:41.770Z,96749.34
2023-12-04T05:08:08.282Z,96742.91
2023-12-04T05:10:34.722Z,96740.72
2023-12-04T05:13:01.198Z,96744.16
2023-12-04T05:15:27.777Z,96739.38
2023-12-04T05:17:54.694Z,96729.13
2023-12-04T05:20:21.258Z,96733.63
2023-12-04T05:22:47.934Z,96732.81
2023-12-04T05:25:14.471Z,96728.19
2023-12-04T05:27:41.019Z,96724.56
2023-12-04T05:30:08.031Z,96718.47
2023-12-04T05:32:34.642Z,96720.06
2023-12-04T05:35:01.308Z,96732.78
2023-12-04T05:37:27.729Z,96713.91
2023-12-04T05:39:54.192Z,96723.63
2023-12-04T05:42:20.648Z,96722.47
2023-12-04T05:44:47.166Z,96725.13
2023-12-04T05:47:13.620Z,96720.81
2023-12-04T05:49:40.125Z,96720.66
2023-12-04T05:52:07.020Z,96703.66
2023-12-04T05:54:33.507Z,96714.53
2023-12-04T05:56:59.911Z,96714.09
2023-12-04T05:59:26.527Z,96714.28
2023-12-04T06:01:52.993Z,96718.91
2023-12-04T06:04:19.443Z,96706.97
2023-12-04T06:06:45.895Z,96707.19
2023-12-04T06:09:12.436Z,96699.06
2023-12-04T06:11:38.869Z,96705.50
2023-12-04T06:14:05.338Z,96713.88
2023-12-04T06:16:31.922Z,96702.22
2023-12-04T06:18:58.445Z,96699.44
2023-12-04T06:21:24.943Z,96697.78
2023-12-04T06:23:51.708Z,96684.47
2023-12-04T06:26:18.529Z,96689.47
2023-12-04T06:28:46.141Z,96684.56
2023-12-04T06:31:13.401Z,96687.78
2023-12-04T06:33:40.132Z,96681.38
2023-12-04T06:36:08.211Z,96680.97
2023-12-04T06:38:41.187Z,96678.91
2023-12-04T06:41:09.119Z,96681.91
2023-12-04T06:43:35.983Z,96678.16
2023-12-04T06:46:03.314Z,96666.47
2023-12-04T06:48:33.417Z,96669.09
2023-12-04T06:51:00.442Z,96659.06
2023-12-04T06:53:26.980Z,96655.41
2023-12-04T06:55:53.438Z,96660.09
2023-12-04T06:58:20.253Z,96649.88
2023-12-04T07:00:46.841Z,96651.78
2023-12-04T07:03:13.406Z,96655.00
2023-12-04T07:05:39.981Z,96643.41
2023-12-04T07:08:06.785Z,96645.97
2023-12-04T07:10:35.391Z,96651.78
2023-12-04T07:13:02.230Z,96651.19
2023-12-04T07:15:28.829Z,96643.22
2023-12-04T07:17:56.783Z,96638.78
2023-12-04T07:20:25.038Z,96638.66
2023-12-04T07:22:52.380Z,96643.41
2023-12-04T07:25:19.033Z,96642.59
2023-12-04T07:27:45.666Z,96646.63
2023-12-04T07:30:12.416Z,96639.47
2023-12-04T07:32:38.969Z,96629.38
2023-12-04T07:35:06.357Z,96630.03
2023-12-04T07:37:33.267Z,96620.75
2023-12-04T07:39:59.990Z,96621.03
2023-12-04T07:42:26.779Z,96619.13
2023-12-04T07:44:53.248Z,96628.81
2023-12-04T07:47:19.837Z,96634.28
2023-12-04T07:49:46.564Z,96626.09
2023-12-04T07:52:13.276Z,96628.03
2023-12-04T07:54:40.247Z,96613.75
2023-12-04T07:57:06.820Z,96629.84
2023-12-04T07:59:33.263Z,96626.97
2023-12-04T08:01:59.896Z,96646.00
2023-12-04T08:04:26.452Z,96659.03
2023-12-04T08:06:53.190Z,96652.41
2023-12-04T08:09:19.665Z,96653.06
2023-12-04T08:11:46.553Z,96659.00
2023-12-04T08:14:13.163Z,96641.31
2023-12-04T08:16:39.875Z,96656.59
2023-12-04T08:19:06.392Z,96636.31
2023-12-04T08:21:33.294Z,96634.38
2023-12-04T08:23:59.807Z,96627.00
2023-12-04T08:26:26.627Z,96615.88
2023-12-04T08:28:53.601Z,96621.19
2023-12-04T08:31:20.361Z,96618.94
2023-12-04T08:33:47.124Z,96619.25
2023-12-04T08:36:13.785Z,96615.06
2023-12-04T08:38:40.336Z,96614.13
2023-12-04T08:41:07.437Z,96604.44
2023-12-04T08:43:33.959Z,96602.22
2023-12-04T08:46:01.766Z,96598.81
2023-12-04T08:48:28.422Z,96605.28
2023-12-04T08:50:55.732Z,96608.00
2023-12-04T08:53:22.453Z,96615.91
2023-12-04T08:55:48.968Z,96614.75
2023-12-04T08:58:15.821Z,96606.38
2023-12-04T09:00:44.656Z,96588.94
2023-12-04T09:03:18.093Z,96586.63
2023-12-04T09:05:51.637Z,96579.03
2023-12-04T09:08:31.693Z,96589.66
2023-12-04T09:11:18.227Z,96604.56
2023-12-04T09:13:49.507Z,96607.06
2023-12-04T09:16:16.057Z,96612.03
2023-12-04T09:18:42.685Z,96619.50
2023-12-04T09:21:09.584Z,96611.09
2023-12-04T09:23:36.737Z,96609.69
2023-12-04T09:26:03.639Z,96615.13
2023-12-04T09:28:30.363Z,96620.47
2023-12-04T09:30:57.749Z,96631.63
2023-12-04T09:33:24.360Z,96620.25
2023-12-04T09:35:50.963Z,96615.88
2023-12-04T09:38:17.731Z,96615.53
2023-12-04T09:40:44.329Z,96634.75
2023-12-04T09:43:11.825Z,96627.16
2023-12-04T09:45:39.997Z,96626.22
2023-12-04T09:48:07.799Z,96666.31
2023-12-04T09:50:34.789Z,96636.34
2023-12-04T09:53:03.563Z,96658.41
2023-12-04T09:55:30.062Z,96634.84
2023-12-04T09:57:57.913Z,96637.91
2023-12-04T10:00:25.404Z,96650.03
2023-12-04T10:02:53.373Z,96645.66
2023-12-04T10:05:19.971Z,96649.31
2023-12-04T10:07:47.001Z,96640.25
2023-12-04T10:10:15.503Z,96641.84
2023-12-04T10:12:44.559Z,96622.25
2023-12-04T10:15:13.337Z,96622.53
2023-12-04T10:17:41.757Z,96615.53
2023-12-04T10:20:13.438Z,96597.28
2023-12-04T10:22:57.814Z,96573.91
2023-12-04T10:25:27.209Z,96571.50
2023-12-04T10:27:55.308Z,96585.59
2023-12-04T10:30:29.915Z,96596.84
2023-12-04T10:33:04.202Z,96589.72
2023-12-04T10:35:33.811Z,96589.94
2023-12-04T10:38:00.896Z,96565.41
2023-12-04T10:40:28.786Z,96572.94
2023-12-04T10:43:12.160Z,96538.94
2023-12-04T10:45:43.508Z,96523.97
2023-12-04T10:48:12.785Z,96514.16
2023-12-04T10:50:41.095Z,96506.13
2023-12-04T10:53:13.441Z,96513.47
2023-12-04T10:55:41.471Z,96512.63
2023-12-04T10:58:16.674Z,96502.69
2023-12-04T11:00:47.659Z,96516.56
2023-12-04T11:03:39.232Z,96501.84
2023-12-04T11:06:10.417Z,96501.84
2023-12-04T11:08:38.105Z,96507.84
2023-12-04T11:11:13.006Z,96495.22
2023-12-04T11:13:42.904Z,96493.44
2023-12-04T11:16:19.564Z,96502.34
2023-12-04T11:19:13.335Z,96484.22
2023-12-04T11:21:40.809Z,96476.06
2023-12-04T11:24:09.213Z,96481.91
2023-12-04T11:26:37.139Z,96484.38
2023-12-04T11:29:04.942Z,96473.91
2023-12-04T11:31:32.220Z,96469.88
2023-12-04T11:34:05.794Z,96453.75
2023-12-04T11:36:32.399Z,96433.53
2023-12-04T11:38:58.985Z,96416.72
2023-12-04T11:41:27.764Z,96409.13
2023-12-04T11:43:57.485Z,96389.91
2023-12-04T11:46:29.125Z,96391.50
2023-12-04T11:49:12.471Z,96376.31
2023-12-04T11:51:48.286Z,96374.75
2023-12-04T11:54:16.509Z,96372.34
2023-12-04T11:57:20.332Z,96367.56
2023-12-04T11:59:46.861Z,96381.16
2023-12-04T12:02:13.391Z,96389.75
2023-12-04T12:04:40.296Z,96383.16
2023-12-04T12:07:08.925Z,96390.78
2023-12-04T12:09:36.240Z,96386.78
2023-12-04T12:12:03.887Z,96380.97
2023-12-04T12:14:31.181Z,96384.75
2023-12-04T12:17:00.833Z,96378.38
2023-12-04T12:19:27.778Z,96366.56
2023-12-04T12:21:54.386Z,96372.97
2023-12-04T12:24:20.925Z,96369.53
2023-12-04T12:26:48.491Z,96373.94
2023-12-04T12:29:15.024Z,96365.91
2023-12-04T12:31:41.456Z,96359.72
2023-12-04T12:34:08.115Z,96357.13
2023-12-04T12:36:35.368Z,96332.72
2023-12-04T12:39:04.867Z,96341.31
2023-12-04T12:41:32.336Z,96341.47
2023-12-04T12:43:58.917Z,96338.28
2023-12-04T12:46:25.502Z,96318.28
2023-12-04T12:48:52.641Z,96307.88
2023-12-04T12:51:19.754Z,96306.94
2023-12-04T12:53:50.828Z,96311.94
2023-12-04T12:56:19.214Z,96322.38
2023-12-04T12:58:45.965Z,96314.16
2023-12-04T13:01:13.382Z,96312.34
2023-12-04T13:03:40.200Z,96287.38
2023-12-04T13:06:07.219Z,96316.91
2023-12-04T13:08:33.719Z,96296.75
2023-12-04T13:11:01.104Z,96333.94
2023-12-04T13:13:28.296Z,96281.75
2023-12-04T13:15:55.638Z,96290.94
2023-12-04T13:18:22.668Z,96275.56
2023-12-04T13:20:49.292Z,96265.16
2023-12-04T13:23:15.807Z,96261.19
2023-12-04T13:25:42.434Z,96239.78
2023-12-04T13:28:12.256Z,96238.19
2023-12-04T13:30:46.547Z,96281.56
2023-12-04T13:33:13.136Z,96286.34
2023-12-04T13:35:39.891Z,96286.28
2023-12-04T13:38:15.275Z,96279.47
2023-12-04T13:40:42.070Z,96296.25
2023-12-04T13:43:27.216Z,96290.22
2023-12-04T13:45:54.114Z,96265.44
2023-12-04T13:48:22.530Z,96227.91
2023-12-04T13:50:51.257Z,96217.94
2023-12-04T13:53:21.590Z,96217.34
2023-12-04T13:55:50.661Z,96216.00
2023-12-04T13:58:36.306Z,96229.16
2023-12-04T14:01:12.931Z,96229.97
2023-12-04T14:03:39.983Z,96247.50
2023-12-04T14:06:07.241Z,96243.91
2023-12-04T14:08:34.072Z,96230.72
2023-12-04T14:11:00.757Z,96207.13
2023-12-04T14:13:28.176Z,96195.94
2023-12-04T14:15:55.789Z,96201.34
2023-12-04T14:18:24.641Z,96201.19
2023-12-04T14:20:52.415Z,96201.56
2023-12-04T14:23:20.139Z,96203.59
2023-12-04T14:25:48.570Z,96211.16
2023-12-04T14:28:17.481Z,96213.97
2023-12-04T14:30:48.143Z,96213.53
2023-12-04T14:33:15.332Z,96190.34
2023-12-04T14:35:44.760Z,96199.53
2023-12-04T14:38:11.456Z,96209.69
2023-12-04T14:40:38.268Z,96200.38
2023-12-04T14:43:06.373Z,96206.53
2023-12-04T14:45:32.956Z,96198.34
2023-12-04T14:47:59.616Z,96179.19
2023-12-04T14:50:26.131Z,96177.63
2023-12-04T14:52:55.478Z,96181.16
2023-12-04T14:55:25.142Z,96171.56
2023-12-04T14:58:13.289Z,96169.59
2023-12-04T15:00:58.298Z,96163.81
2023-12-04T15:03:24.761Z,96178.38
2023-12-04T15:05:54.127Z,96150.03
2023-12-04T15:08:47.010Z,96148.25
2023-12-04T15:11:13.557Z,96150.00
2023-12-04T15:13:51.452Z,96148.00
2023-12-04T15:16:27.208Z,96147.22
2023-12-04T15:18:54.189Z,96159.63
2023-12-04T15:21:23.135Z,96144.06
2023-12-04T15:23:50.172Z,96143.66
2023-12-04T15:26:18.336Z,96159.63
2023-12-04T15:28:46.038Z,96142.06
2023-12-04T15:31:13.306Z,96139.28
2023-12-04T15:33:39.859Z,96152.22
2023-12-04T15:36:08.440Z,96137.84
2023-12-04T15:38:35.219Z,96121.72
2023-12-04T15:41:02.441Z,96124.88
2023-12-04T15:43:28.984Z,96119.28
2023-12-04T15:45:55.730Z,96121.69
2023-12-04T15:48:22.392Z,96119.31
2023-12-04T15:50:48.911Z,96102.34
2023-12-04T15:53:15.454Z,96099.72
2023-12-04T15:55:41.897Z,96097.75
2023-12-04T15:58:08.420Z,96099.34
2023-12-04T16:00:35.553Z,96100.53
2023-12-04T16:03:02.069Z,96091.34
2023-12-04T16:05:28.706Z,96091.75
2023-12-04T16:07:55.347Z,96081.75
2023-12-04T16:10:22.225Z,96081.97
2023-12-04T16:12:49.102Z,96081.38
2023-12-04T16:15:18.072Z,96081.78
2023-12-04T16:17:44.550Z,96083.75
2023-12-04T16:20:12.468Z,96079.38
2023-12-04T16:22:43.773Z,96071.19
2023-12-04T16:25:11.104Z,96076.19
2023-12-04T16:27:39.506Z,96071.00
2023-12-04T16:30:07.677Z,96072.59
2023-12-04T16:32:34.606Z,96070.59
2023-12-04T16:35:02.441Z,96065.81
2023-12-04T16:37:29.900Z,96061.41
2023-12-04T16:39:56.465Z,96064.59
2023-12-04T16:42:23.161Z,96069.97
2023-12-04T16:44:49.742Z,96064.59
2023-12-04T16:47:16.255Z,96069.00
2023-12-04T16:49:43.066Z,96064.19
2023-12-04T16:52:09.666Z,96072.97
2023-12-04T16:54:36.215Z,96054.03
2023-12-04T16:57:02.809Z,96042.66
2023-12-04T16:59:29.285Z,96048.22
2023-12-04T17:01:55.914Z,96046.22
2023-12-04T17:04:23.079Z,96045.81
2023-12-04T17:06:49.991Z,96045.00
2023-12-04T17:09:16.758Z,96045.00
2023-12-04T17:11:43.928Z,96041.25
2023-12-04T17:14:11.427Z,96042.44
2023-12-04T17:16:38.005Z,96027.47
2023-12-04T17:19:04.719Z,96024.66
2023-12-04T17:21:31.215Z,96019.28
2023-12-04T17:23:57.886Z,96022.44
2023-12-04T17:26:24.844Z,96008.91
2023-12-04T17:28:51.843Z,96017.06
2023-12-04T17:31:18.424Z,96008.28
2023-12-04T17:33:45.561Z,96003.09
2023-12-04T17:36:12.465Z,96001.94
2023-12-04T17:38:39.189Z,96001.94
2023-12-04T17:41:05.784Z,95991.97
2023-12-04T17:43:33.851Z,95987.19
2023-12-04T17:46:00.455Z,95984.38
2023-12-04T17:48:27.337Z,95978.78
2023-12-04T17:50:54.053Z,95975.59
2023-12-04T17:53:21.053Z,95974.19
2023-12-04T17:55:47.667Z,95970.38
2023-12-04T17:58:17.250Z,95963.59
2023-12-04T18:00:44.446Z,95964.78
2023-12-04T18:03:11.469Z,95957.97
2023-12-04T18:05:38.522Z,95952.97
2023-12-04T18:08:05.352Z,95961.53
2023-12-04T18:10:32.346Z,95949.78
2023-12-04T18:12:58.854Z,95947.56
2023-12-04T18:15:25.367Z,95953.94
2023-12-04T18:17:52.039Z,95942.13
2023-12-04T18:20:18.642Z,95937.16
2023-12-04T18:22:45.853Z,95943.56
2023-12-04T18:25:13.604Z,95928.59
2023-12-04T18:27:40.901Z,95941.53
2023-12-04T18:30:09.284Z,95936.38
2023-12-04T18:32:36.233Z,95930.78
2023-12-04T18:35:03.376Z,95917.66
2023-12-04T18:37:36.303Z,95920.84
2023-12-04T18:40:08.007Z,95913.94
2023-12-04T18:42:34.934Z,95913.53
2023-12-04T18:45:01.701Z,95909.78
2023-12-04T18:47:29.461Z,95912.16
2023-12-04T18:49:58.251Z,95907.00
2023-12-04T18:52:25.101Z,95909.78
2023-12-04T18:54:51.696Z,95907.00
2023-12-04T18:57:18.318Z,95912.75
2023-12-04T18:59:44.769Z,95914.97
2023-12-04T19:02:11.336Z,95917.75
2023-12-04T19:04:38.593Z,95917.34
2023-12-04T19:07:05.643Z,95915.75
2023-12-04T19:09:32.347Z,95911.34
2023-12-04T19:11:58.950Z,95906.97
2023-12-04T19:14:25.426Z,95910.13
2023-12-04T19:16:51.917Z,95904.56
2023-12-04T19:19:18.510Z,95896.97
2023-12-04T19:21:45.042Z,95903.72
2023-12-04T19:24:11.629Z,95898.78
2023-12-04T19:26:38.167Z,95903.34
2023-12-04T19:29:04.588Z,95897.34
2023-12-04T19:31:31.016Z,95909.69
2023-12-04T19:33:57.677Z,95904.50
2023-12-04T19:36:24.197Z,95898.56
2023-12-04T19:38:50.808Z,95896.97
2023-12-04T19:41:17.817Z,95897.78
2023-12-04T19:43:44.718Z,95902.19
2023-12-04T19:46:11.202Z,95898.59
2023-12-04T19:48:37.830Z,95897.19
2023-12-04T19:51:05.645Z,95892.63
2023-12-04T19:53:32.055Z,95899.44
2023-12-04T19:55:58.504Z,95910.19
2023-12-04T19:58:24.986Z,95892.25
2023-12-04T20:00:51.464Z,95891.06
2023-12-04T20:03:18.137Z,95885.28
2023-12-04T20:05:44.998Z,95889.22
2023-12-04T20:08:11.616Z,95887.44
2023-12-04T20:10:39.359Z,95880.66
2023-12-04T20:13:08.134Z,95882.66
2023-12-04T20:15:34.880Z,95879.66
2023-12-04T20:18:02.280Z,95881.03
2023-12-04T20:20:29.392Z,95872.66
2023-12-04T20:22:56.061Z,95874.66
2023-12-04T20:25:26.871Z,95878.63
2023-12-04T20:27:53.665Z,95890.19
2023-12-04T20:30:20.097Z,95875.84
2023-12-04T20:32:46.666Z,95875.06
2023-12-04T20:35:13.146Z,95875.44
2023-12-04T20:37:42.067Z,95883.81
2023-12-04T20:40:10.431Z,95888.19
2023-12-04T20:42:37.689Z,95882.63
2023-12-04T20:45:05.707Z,95888.38
2023-12-04T20:47:33.506Z,95894.56
2023-12-04T20:50:00.165Z,95897.34
2023-12-04T20:52:27.016Z,95889.97
2023-12-04T20:54:53.555Z,95881.03
2023-12-04T20:57:20.306Z,95885.78
2023-12-04T20:59:46.754Z,95888.53
2023-12-04T21:02:13.259Z,95892.09
2023-12-04T21:04:40.651Z,95888.34
2023-12-04T21:07:07.875Z,95893.72
2023-12-04T21:09:36.531Z,95892.09
2023-12-04T21:12:03.450Z,95882.09
2023-12-04T21:14:29.994Z,95884.13
2023-12-04T21:17:01.299Z,95877.72
2023-12-04T21:19:29.396Z,95870.91
2023-12-04T21:21:56.127Z,95876.06
2023-12-04T21:24:22.632Z,95871.25
2023-12-04T21:26:49.196Z,95871.69
2023-12-04T21:29:15.698Z,95872.88
2023-12-04T21:31:42.137Z,95870.53
2023-12-04T21:34:09.415Z,95877.88
2023-12-04T21:36:35.969Z,95868.31
2023-12-04T21:39:02.695Z,95863.72
2023-12-04T21:41:29.161Z,95856.50
2023-12-04T21:43:56.189Z,95859.66
2023-12-04T21:46:22.749Z,95854.84
2023-12-04T21:48:49.378Z,95856.28
2023-12-04T21:51:16.117Z,95850.47
2023-12-04T21:53:42.581Z,95845.25
2023-12-04T21:56:09.290Z,95849.66
2023-12-04T21:58:35.766Z,95844.44
2023-12-04T22:01:02.248Z,95858.88
2023-12-04T22:03:28.931Z,95855.31
2023-12-04T22:05:55.680Z,95853.06
2023-12-04T22:08:23.114Z,95843.66
2023-12-04T22:10:49.906Z,95843.66
2023-12-04T22:13:16.393Z,95837.72
2023-12-04T22:15:42.898Z,95831.31
2023-12-04T22:18:09.673Z,95834.09
2023-12-04T22:20:36.221Z,95827.75
2023-12-04T22:23:02.925Z,95832.13
2023-12-04T22:25:29.440Z,95826.16
2023-12-04T22:27:56.165Z,95821.56
2023-12-04T22:30:23.386Z,95818.59
2023-12-04T22:32:50.289Z,95830.16
2023-12-04T22:35:16.768Z,95829.78
2023-12-04T22:37:43.770Z,95830.13
2023-12-04T22:40:10.818Z,95824.47
2023-12-04T22:42:37.630Z,95826.06
2023-12-04T22:45:05.364Z,95829.03
2023-12-04T22:47:31.868Z,95831.63
2023-12-04T22:49:58.296Z,95827.41
2023-12-04T22:52:24.833Z,95831.78
2023-12-04T22:54:51.375Z,95830.78
2023-12-04T22:57:17.839Z,95831.56
2023-12-04T22:59:44.381Z,95825.53
2023-12-04T23:02:10.873Z,95837.72
2023-12-04T23:04:39.153Z,95835.16
2023-12-04T23:07:06.892Z,95839.75
2023-12-04T23:09:34.216Z,95836.75
2023-12-04T23:12:00.765Z,95838.84
2023-12-04T23:14:28.980Z,95838.25
2023-12-04T23:16:55.536Z,95835.06
2023-12-04T23:19:22.190Z,95846.63
2023-12-04T23:21:49.022Z,95837.41
2023-12-04T23:24:15.727Z,95834.97
2023-12-04T23:26:42.212Z,95833.75
2023-12-04T23:29:08.808Z,95845.34
2023-12-04T23:31:35.326Z,95840.50
2023-12-04T23:34:02.465Z,95836.84
2023-12-04T23:36:29.124Z,95836.41
2023-12-04T23:38:55.668Z,95833.41
2023-12-04T23:41:22.317Z,95828.59
2023-12-04T23:43:48.971Z,95826.59
2023-12-04T23:46:15.508Z,95824.56
2023-12-04T23:48:42.489Z,95828.56
2023-12-04T23:51:09.216Z,95828.56
2023-12-04T23:53:35.780Z,95822.56
2023-12-04T23:56:02.463Z,95820.56
2023-12-04T23:58:28.888Z,95820.97
